Gist Settlement, Ohio
Current Conditions -  °F | °C
As of 10:54 AM on Thursday 30 Oct 2014 (Local Time) from KILN Reporting Station
Overcast Overcast  
Wind Chill: 47°   Ceiling: 3800
Heat Index: 47°   Visibility: 10mi
Dew Point: 32°   Wind: 3mph
Humidity: 56%   Direction: 340°NNW
Pressure: 30.16"   Gusts: NA
Location:  39.3358°N, 83.6802°W
Report Text: KILN 301454Z AUTO 34003KT 10SM OVC038 08/00 A3016 RMK AO2 SLP230 T00830000 51007
Loading
Personal Weather Stations






























Interactive Weather Map
Tropical Storm Tracking
New forecast layout! Learn more

10-Day Weather Forecast

Advertisements
Track Severe Weather on mobile